Time;durP1;ratioP1;P1;durP2;ratioP2;P2;SDS_P1;SDS_P2;PMS_P1;PMS_P2;Temp;Humidity;BMP_temperature;BMP_pressure;BME280_temperature;BME280_humidity;BME280_pressure;Samples;Min_cycle;Max_cycle;Signal;HPM_P1;HPM_P2
2022/03/26 00:00:48;;;;;;;177.30;57.80;;;3.40;99.90;;;;;;5022766;28;20083;-76
2022/03/26 00:03:24;;;;;;;192.73;59.38;;;3.50;99.90;;;;;;5037185;28;20029;-77
2022/03/26 00:05:50;;;;;;;189.65;59.10;;;3.60;99.90;;;;;;5026964;28;20030;-77
2022/03/26 00:08:16;;;;;;;181.07;55.78;;;3.60;99.90;;;;;;5004085;28;20076;-76
2022/03/26 00:10:41;;;;;;;184.23;57.15;;;3.60;99.90;;;;;;5003917;28;20049;-76
2022/03/26 00:13:07;;;;;;;182.43;58.05;;;3.80;99.90;;;;;;5015532;28;20041;-77
2022/03/26 00:15:32;;;;;;;185.52;58.35;;;3.80;99.90;;;;;;5040706;28;20228;-77
2022/03/26 00:17:58;;;;;;;180.00;55.80;;;3.80;99.90;;;;;;5034725;28;20028;-76
2022/03/26 00:20:24;;;;;;;182.25;59.95;;;3.70;99.90;;;;;;5035478;28;20022;-77
2022/03/26 00:22:49;;;;;;;181.10;56.88;;;3.60;99.90;;;;;;5010836;28;20022;-77
2022/03/26 00:25:16;;;;;;;185.73;59.22;;;3.70;99.90;;;;;;5025750;28;20100;-76
2022/03/26 00:27:42;;;;;;;187.25;58.38;;;3.80;99.90;;;;;;5033835;28;20104;-76
2022/03/26 00:30:10;;;;;;;191.30;60.83;;;3.70;99.90;;;;;;5035038;28;20029;-76
2022/03/26 00:32:35;;;;;;;181.70;58.33;;;3.80;99.90;;;;;;5044064;28;20021;-76
2022/03/26 00:35:01;;;;;;;187.52;59.08;;;3.80;99.90;;;;;;5030255;28;20124;-76
2022/03/26 00:37:26;;;;;;;181.73;57.50;;;3.70;99.90;;;;;;5023950;28;20125;-76
2022/03/26 00:39:53;;;;;;;179.05;56.28;;;3.70;99.90;;;;;;5033923;28;20110;-76
2022/03/26 00:42:18;;;;;;;178.20;57.60;;;3.70;99.90;;;;;;5035823;28;20018;-76
2022/03/26 00:44:44;;;;;;;167.07;55.20;;;3.70;99.90;;;;;;5037643;28;20401;-76
2022/03/26 00:47:09;;;;;;;182.98;55.67;;;3.70;99.90;;;;;;5027109;28;20096;-76
2022/03/26 00:49:36;;;;;;;181.32;57.85;;;3.70;99.90;;;;;;5042312;28;20033;-77
2022/03/26 00:52:03;;;;;;;167.73;56.60;;;3.70;99.90;;;;;;5030429;28;20018;-76
2022/03/26 00:54:30;;;;;;;184.10;58.42;;;3.50;99.90;;;;;;5022481;28;20037;-76
2022/03/26 00:56:57;;;;;;;183.75;57.45;;;3.60;99.90;;;;;;5023009;28;20044;-79
2022/03/26 00:59:22;;;;;;;173.82;55.40;;;3.50;99.90;;;;;;5023447;28;20026;-79
2022/03/26 01:01:49;;;;;;;172.50;57.90;;;3.50;99.90;;;;;;5022978;28;20026;-79
2022/03/26 01:04:14;;;;;;;179.20;56.20;;;3.50;99.90;;;;;;5036251;28;20030;-80
2022/03/26 01:06:40;;;;;;;174.20;58.97;;;3.50;99.90;;;;;;5035793;28;20022;-79
2022/03/26 01:09:07;;;;;;;169.23;56.65;;;3.60;99.90;;;;;;5028704;28;20053;-79
2022/03/26 01:11:33;;;;;;;172.18;55.17;;;3.60;99.90;;;;;;5027812;28;20038;-79
2022/03/26 01:13:58;;;;;;;158.30;54.38;;;3.50;99.90;;;;;;5038673;28;20041;-79
2022/03/26 01:16:24;;;;;;;160.82;51.28;;;3.40;99.90;;;;;;5028548;28;20100;-79
2022/03/26 01:18:50;;;;;;;178.00;58.10;;;3.20;99.90;;;;;;5041214;28;20029;-80
2022/03/26 01:21:17;;;;;;;175.25;56.55;;;3.20;99.90;;;;;;5016446;28;20297;-79
2022/03/26 01:23:44;;;;;;;173.93;54.83;;;3.20;99.90;;;;;;5001378;28;20267;-80
2022/03/26 01:26:10;;;;;;;168.48;58.53;;;3.20;99.90;;;;;;4999549;28;20057;-79
2022/03/26 01:28:35;;;;;;;171.00;55.10;;;3.20;99.90;;;;;;5007567;28;20033;-79
2022/03/26 01:31:01;;;;;;;173.52;54.55;;;3.20;99.90;;;;;;5020156;28;20041;-79
2022/03/26 01:33:27;;;;;;;156.77;52.95;;;3.20;99.90;;;;;;5020371;28;20018;-80
2022/03/26 01:35:53;;;;;;;175.57;56.92;;;3.10;99.90;;;;;;5020624;28;20017;-79
2022/03/26 01:38:19;;;;;;;170.70;56.17;;;3.00;99.90;;;;;;5020114;28;20077;-79
2022/03/26 01:40:45;;;;;;;173.52;55.40;;;3.00;99.90;;;;;;5034687;28;20067;-79
2022/03/26 01:43:11;;;;;;;158.88;52.20;;;3.10;99.90;;;;;;5014863;28;20023;-79
2022/03/26 01:45:36;;;;;;;176.65;56.80;;;3.00;99.90;;;;;;5006197;28;20510;-79
2022/03/26 01:48:02;;;;;;;173.82;55.60;;;2.90;99.90;;;;;;5019261;28;20034;-76
2022/03/26 01:50:29;;;;;;;177.98;57.97;;;2.90;99.90;;;;;;5018497;28;20061;-77
2022/03/26 01:52:55;;;;;;;176.50;54.28;;;2.90;99.90;;;;;;5036353;28;20405;-76
2022/03/26 01:55:22;;;;;;;175.82;55.00;;;2.90;99.90;;;;;;5039853;28;20108;-76
2022/03/26 01:57:49;;;;;;;170.95;54.03;;;2.80;99.90;;;;;;5040953;28;20048;-76
2022/03/26 02:00:16;;;;;;;171.63;55.28;;;2.80;99.90;;;;;;5039133;28;20026;-76
2022/03/26 02:02:43;;;;;;;170.95;52.13;;;2.80;99.90;;;;;;5020186;28;20108;-77
2022/03/26 02:05:13;;;;;;;164.98;52.95;;;2.80;99.90;;;;;;5019157;28;20021;-77
2022/03/26 02:07:40;;;;;;;175.35;55.22;;;2.70;99.90;;;;;;5022033;28;20030;-77
2022/03/26 02:10:08;;;;;;;173.30;53.35;;;2.70;99.90;;;;;;5021025;28;20037;-76
2022/03/26 02:12:34;;;;;;;186.27;55.03;;;2.70;99.90;;;;;;5020338;28;20100;-77
2022/03/26 02:15:00;;;;;;;163.65;52.00;;;2.70;99.90;;;;;;5018428;28;20029;-76
2022/03/26 02:17:25;;;;;;;173.35;54.08;;;2.60;99.90;;;;;;5032327;28;20017;-76
2022/03/26 02:20:11;;;;;;;157.25;50.60;;;2.60;99.90;;;;;;5037954;28;20025;-77
2022/03/26 02:22:38;;;;;;;169.52;50.80;;;2.50;99.90;;;;;;5032280;28;20026;-76
2022/03/26 02:25:05;;;;;;;178.48;54.20;;;2.50;99.90;;;;;;5025989;28;20033;-76
2022/03/26 02:27:32;;;;;;;205.30;58.58;;;2.60;99.90;;;;;;5024831;28;20034;-76
2022/03/26 02:29:58;;;;;;;180.35;54.05;;;2.70;99.90;;;;;;5025769;28;20041;-76
2022/03/26 02:32:25;;;;;;;154.65;48.75;;;2.60;99.90;;;;;;5045981;28;20025;-77
2022/03/26 02:34:51;;;;;;;167.32;51.53;;;2.40;99.90;;;;;;5029858;28;20041;-77
2022/03/26 02:37:17;;;;;;;158.68;49.85;;;2.30;99.90;;;;;;5032742;28;20030;-76
2022/03/26 02:39:44;;;;;;;169.32;52.03;;;2.30;99.90;;;;;;5022799;28;20075;-76
2022/03/26 02:42:11;;;;;;;164.68;50.10;;;2.20;99.90;;;;;;5021865;28;20532;-76
2022/03/26 02:44:36;;;;;;;167.75;52.92;;;2.20;99.90;;;;;;5033636;28;20045;-76
2022/03/26 02:47:02;;;;;;;163.98;52.15;;;2.20;99.90;;;;;;5026325;28;20094;-76
2022/03/26 02:49:27;;;;;;;168.52;52.92;;;2.20;99.90;;;;;;5030235;28;20014;-76
2022/03/26 02:51:53;;;;;;;171.27;51.47;;;2.20;99.90;;;;;;5006979;28;20061;-76
2022/03/26 02:54:19;;;;;;;160.52;49.70;;;2.20;99.90;;;;;;5004962;28;20105;-76
2022/03/26 02:56:48;;;;;;;176.30;49.50;;;2.10;99.90;;;;;;5038497;28;20132;-77
2022/03/26 02:59:14;;;;;;;148.53;46.13;;;2.10;99.90;;;;;;5046314;28;20477;-76
2022/03/26 03:01:40;;;;;;;138.85;44.78;;;2.00;99.90;;;;;;5038509;28;20262;-76
2022/03/26 03:04:05;;;;;;;141.20;43.80;;;2.00;99.90;;;;;;5030296;28;20034;-76
2022/03/26 03:06:31;;;;;;;152.77;47.22;;;2.00;99.90;;;;;;5043855;28;20038;-76
2022/03/26 03:08:57;;;;;;;149.32;45.60;;;2.00;99.90;;;;;;5032730;28;20084;-76
2022/03/26 03:11:23;;;;;;;136.73;43.38;;;2.00;99.90;;;;;;5026606;28;20033;-76
2022/03/26 03:13:49;;;;;;;137.50;44.08;;;2.10;99.90;;;;;;5026199;28;20084;-75
2022/03/26 03:16:14;;;;;;;158.85;48.33;;;2.00;99.90;;;;;;5034843;28;20065;-77
2022/03/26 03:18:40;;;;;;;165.73;50.80;;;2.10;99.90;;;;;;5023917;28;20030;-77
2022/03/26 03:21:06;;;;;;;175.23;50.50;;;2.10;99.90;;;;;;5006128;28;20030;-77
2022/03/26 03:23:32;;;;;;;185.88;52.38;;;2.20;99.90;;;;;;5008709;28;20033;-76
2022/03/26 03:25:57;;;;;;;170.23;48.63;;;2.30;99.90;;;;;;5038973;28;20046;-77
2022/03/26 03:28:23;;;;;;;183.15;50.80;;;2.20;99.90;;;;;;5035698;28;20654;-76
2022/03/26 03:30:48;;;;;;;178.57;50.30;;;2.10;99.90;;;;;;5035055;28;20052;-76
2022/03/26 03:33:14;;;;;;;171.50;49.70;;;2.10;99.90;;;;;;5044319;28;20040;-76
2022/03/26 03:35:40;;;;;;;181.10;48.97;;;2.20;99.90;;;;;;5039287;28;20034;-77
2022/03/26 03:38:05;;;;;;;178.32;49.97;;;2.10;99.90;;;;;;5033409;28;20030;-76
2022/03/26 03:40:31;;;;;;;189.93;53.45;;;2.00;99.90;;;;;;5034655;28;20658;-77
2022/03/26 03:42:56;;;;;;;202.77;54.80;;;2.20;99.90;;;;;;5026810;28;20500;-77
2022/03/26 03:45:22;;;;;;;199.10;52.17;;;2.20;99.90;;;;;;5034947;28;20044;-76
2022/03/26 03:47:47;;;;;;;209.68;54.00;;;2.20;99.90;;;;;;5036013;28;20026;-77
2022/03/26 03:50:13;;;;;;;191.73;54.25;;;2.20;99.90;;;;;;5032142;28;20018;-76
2022/03/26 03:52:38;;;;;;;192.70;53.97;;;2.20;99.90;;;;;;5037495;28;20040;-76
2022/03/26 03:55:05;;;;;;;211.23;56.92;;;2.10;99.90;;;;;;5021934;28;20041;-76
2022/03/26 03:57:31;;;;;;;202.48;54.20;;;2.20;99.90;;;;;;5034475;28;20107;-76
2022/03/26 03:59:56;;;;;;;181.27;49.85;;;2.20;99.90;;;;;;5037020;28;20022;-77
2022/03/26 04:02:22;;;;;;;167.75;49.50;;;2.10;99.90;;;;;;5043671;28;20044;-76
2022/03/26 04:04:47;;;;;;;175.00;49.97;;;2.00;99.90;;;;;;5036262;28;20037;-77
2022/03/26 04:07:13;;;;;;;157.55;44.97;;;2.10;99.90;;;;;;5035781;28;20033;-77
2022/03/26 04:09:39;;;;;;;146.05;44.30;;;2.00;99.90;;;;;;5027491;28;20030;-76
2022/03/26 04:12:05;;;;;;;156.77;46.17;;;2.00;99.90;;;;;;5027128;28;20049;-76
2022/03/26 04:14:31;;;;;;;160.07;47.63;;;1.90;99.90;;;;;;5043228;28;20108;-76
2022/03/26 04:16:57;;;;;;;185.55;49.47;;;1.90;99.90;;;;;;5037397;28;20022;-76
2022/03/26 04:19:23;;;;;;;189.68;53.55;;;2.10;99.90;;;;;;5044553;28;20029;-76
2022/03/26 04:21:49;;;;;;;172.52;48.78;;;2.00;99.90;;;;;;5033909;28;20058;-77
2022/03/26 04:24:15;;;;;;;183.57;49.00;;;2.00;99.90;;;;;;5029341;28;20155;-76
2022/03/26 04:26:41;;;;;;;182.13;49.47;;;2.00;99.90;;;;;;5018028;28;20049;-76
2022/03/26 04:29:06;;;;;;;188.27;48.90;;;2.00;99.90;;;;;;5018566;28;20109;-76
2022/03/26 04:31:32;;;;;;;209.93;52.95;;;2.10;99.90;;;;;;5026757;28;20026;-77
2022/03/26 04:34:01;;;;;;;213.02;55.22;;;2.20;99.90;;;;;;5026674;28;20037;-76
2022/03/26 04:36:28;;;;;;;232.20;54.08;;;2.20;99.90;;;;;;5021941;28;20026;-77
2022/03/26 04:38:53;;;;;;;228.18;54.40;;;2.20;99.90;;;;;;5015745;28;20033;-77
2022/03/26 04:41:19;;;;;;;257.55;58.60;;;2.30;99.90;;;;;;5029050;28;20021;-77
2022/03/26 04:43:45;;;;;;;250.65;57.63;;;2.30;99.90;;;;;;5033392;28;20134;-76
2022/03/26 04:46:11;;;;;;;248.20;55.10;;;2.40;99.90;;;;;;5024517;28;20069;-76
2022/03/26 04:48:36;;;;;;;319.08;60.67;;;2.30;99.90;;;;;;5039197;28;20029;-76
2022/03/26 04:51:02;;;;;;;294.48;58.10;;;2.40;99.90;;;;;;5044262;28;20075;-76
2022/03/26 04:53:27;;;;;;;261.30;58.30;;;2.40;99.90;;;;;;5029243;28;20363;-76
2022/03/26 04:55:53;;;;;;;496.38;65.40;;;2.40;99.90;;;;;;5021607;28;20030;-76
2022/03/26 04:58:19;;;;;;;677.97;76.07;;;2.40;99.90;;;;;;5013285;28;20030;-75
2022/03/26 05:00:45;;;;;;;941.25;92.32;;;2.40;99.90;;;;;;5024356;28;20585;-77
2022/03/26 05:03:10;;;;;;;460.30;62.90;;;2.40;99.90;;;;;;5046231;28;20030;-77
2022/03/26 05:05:36;;;;;;;839.40;83.68;;;2.40;99.90;;;;;;4998502;28;20034;-76
2022/03/26 05:08:02;;;;;;;302.92;55.97;;;2.40;99.90;;;;;;4997852;28;20541;-77
2022/03/26 05:10:29;;;;;;;289.23;57.85;;;2.40;99.90;;;;;;4996767;28;20026;-77
2022/03/26 05:12:56;;;;;;;347.90;55.97;;;2.30;99.90;;;;;;4997029;28;20084;-76
2022/03/26 05:15:23;;;;;;;907.35;84.47;;;2.30;99.90;;;;;;4997353;28;20153;-77
2022/03/26 05:17:50;;;;;;;294.17;53.70;;;2.30;99.90;;;;;;4997774;28;20045;-76
2022/03/26 05:20:16;;;;;;;474.45;56.08;;;2.30;99.90;;;;;;4997113;28;20030;-77
2022/03/26 05:22:47;;;;;;;244.30;47.95;;;2.20;99.90;;;;;;5017252;28;20534;-77
2022/03/26 05:25:15;;;;;;;229.80;41.65;;;2.20;99.90;;;;;;5038087;28;20022;-76
2022/03/26 05:27:51;;;;;;;128.68;37.50;;;2.10;99.90;;;;;;5039386;28;20033;-77
2022/03/26 05:30:18;;;;;;;93.00;34.33;;;2.10;99.90;;;;;;5018958;28;20037;-76
2022/03/26 05:32:44;;;;;;;111.80;34.63;;;2.00;99.90;;;;;;5026360;28;20022;-76
2022/03/26 05:35:16;;;;;;;97.78;34.25;;;2.00;99.90;;;;;;5022687;28;20431;-76
2022/03/26 05:37:43;;;;;;;281.83;41.30;;;2.10;99.90;;;;;;5018143;28;20030;-76
2022/03/26 05:40:10;;;;;;;89.80;32.42;;;2.30;99.90;;;;;;5017651;28;20037;-76
2022/03/26 05:42:37;;;;;;;119.38;28.67;;;2.40;99.90;;;;;;5018438;28;20018;-77
2022/03/26 05:45:07;;;;;;;335.00;40.15;;;2.40;99.90;;;;;;5006017;28;20050;-78
2022/03/26 05:47:34;;;;;;;97.75;32.20;;;2.50;99.90;;;;;;5015734;28;20034;-78
2022/03/26 05:50:00;;;;;;;134.10;33.47;;;2.50;99.90;;;;;;5017383;28;20018;-77
2022/03/26 05:52:26;;;;;;;85.28;30.35;;;2.60;1.00;;;;;;5019332;28;20025;-77
2022/03/26 05:54:52;;;;;;;93.35;30.52;;;2.60;1.00;;;;;;5026406;28;20092;-77
2022/03/26 05:57:18;;;;;;;81.60;29.52;;;2.60;1.00;;;;;;5024223;28;20481;-77
2022/03/26 05:59:45;;;;;;;101.78;32.88;;;2.70;1.00;;;;;;5018156;28;20057;-77
2022/03/26 06:02:13;;;;;;;108.28;35.42;;;2.90;1.00;;;;;;5017937;28;20083;-78
2022/03/26 06:04:42;;;;;;;129.52;37.60;;;3.00;1.00;;;;;;5017519;28;20025;-77
2022/03/26 06:07:08;;;;;;;104.07;35.15;;;3.20;1.00;;;;;;5025218;28;20029;-78
2022/03/26 06:09:38;;;;;;;125.22;35.42;;;3.20;1.00;;;;;;5027727;28;20029;-77
2022/03/26 06:12:04;;;;;;;107.78;33.38;;;3.40;1.00;;;;;;5021429;28;20037;-78
2022/03/26 06:14:30;;;;;;;101.85;32.70;;;3.60;1.00;;;;;;5023237;28;20021;-78
2022/03/26 06:16:56;;;;;;;107.90;33.95;;;3.70;1.00;;;;;;5045560;28;20051;-83
2022/03/26 06:19:22;;;;;;;112.40;34.20;;;3.80;1.00;;;;;;5055795;28;20029;-83
2022/03/26 06:21:48;;;;;;;114.65;35.70;;;4.00;1.00;;;;;;5036489;28;20029;-84
2022/03/26 06:24:13;;;;;;;120.65;39.38;;;4.10;1.00;;;;;;5036885;28;20029;-84
2022/03/26 06:26:39;;;;;;;99.40;33.33;;;4.20;1.00;;;;;;5044662;28;20076;-84
2022/03/26 06:29:05;;;;;;;105.00;35.50;;;4.40;1.00;;;;;;5044625;28;20037;-84
2022/03/26 06:31:31;;;;;;;107.00;35.33;;;4.50;1.00;;;;;;5051909;28;20065;-84
2022/03/26 06:33:57;;;;;;;102.57;34.03;;;4.70;1.00;;;;;;5037464;28;20043;-84
2022/03/26 06:36:23;;;;;;;91.30;33.78;;;4.80;1.00;;;;;;5048955;28;20028;-84
2022/03/26 06:38:48;;;;;;;89.55;33.60;;;4.90;1.00;;;;;;5037276;28;20048;-84
2022/03/26 06:41:15;;;;;;;100.35;33.60;;;5.10;1.00;;;;;;5044619;28;20034;-84
2022/03/26 06:43:42;;;;;;;89.88;33.92;;;5.20;1.00;;;;;;5041894;28;20025;-78
2022/03/26 06:46:08;;;;;;;85.50;31.90;;;5.30;1.00;;;;;;5042021;28;20061;-78
2022/03/26 06:48:35;;;;;;;118.38;37.67;;;5.40;1.00;;;;;;5038698;28;20504;-78
2022/03/26 06:51:03;;;;;;;118.65;37.58;;;5.60;1.00;;;;;;5030239;28;20022;-85
2022/03/26 06:53:30;;;;;;;119.32;39.00;;;5.80;1.00;;;;;;5037831;28;20069;-85
2022/03/26 06:55:55;;;;;;;138.75;43.00;;;5.90;99.90;;;;;;5036456;28;20053;-85
2022/03/26 06:58:21;;;;;;;144.60;44.00;;;6.10;99.90;;;;;;5038298;28;20025;-85
2022/03/26 07:00:47;;;;;;;144.75;44.33;;;6.30;99.90;;;;;;5032042;28;20066;-85
2022/03/26 07:03:12;;;;;;;154.45;48.40;;;6.50;99.90;;;;;;5020490;28;20232;-78
2022/03/26 07:05:38;;;;;;;169.52;48.67;;;6.70;99.90;;;;;;5008460;28;20097;-79
2022/03/26 07:08:05;;;;;;;173.18;48.70;;;6.90;99.90;;;;;;5011630;28;20698;-79
2022/03/26 07:10:31;;;;;;;176.68;49.53;;;9.90;1.00;;;;;;5009449;28;20041;-78
2022/03/26 07:12:56;;;;;;;169.05;51.70;;;13.70;99.90;;;;;;5011232;28;20025;-79
2022/03/26 07:15:22;;;;;;;147.65;49.08;;;15.50;99.90;;;;;;5008977;28;20038;-79
2022/03/26 07:17:47;;;;;;;131.43;47.85;;;17.60;1.00;;;;;;5009621;28;20448;-78
2022/03/26 07:20:14;;;;;;;123.80;43.83;;;19.50;99.90;;;;;;5008685;28;20026;-79
2022/03/26 07:22:41;;;;;;;118.85;40.85;;;20.80;99.90;;;;;;5009516;28;20014;-79
2022/03/26 07:25:07;;;;;;;110.20;41.75;;;21.10;99.90;;;;;;5016623;28;20037;-80
2022/03/26 07:27:35;;;;;;;104.60;41.53;;;22.10;99.90;;;;;;5016131;28;20533;-79
2022/03/26 07:30:02;;;;;;;94.10;37.53;;;22.60;99.90;;;;;;5014982;28;20385;-79
2022/03/26 07:32:28;;;;;;;97.75;37.78;;;23.40;99.90;;;;;;5016344;28;20556;-80
2022/03/26 07:34:55;;;;;;;94.30;39.00;;;23.70;99.90;;;;;;5015131;28;20069;-79
2022/03/26 07:37:20;;;;;;;95.95;38.80;;;24.90;99.90;;;;;;5020218;28;20014;-79
2022/03/26 07:39:46;;;;;;;96.78;40.00;;;25.00;99.90;;;;;;5015009;28;20503;-79
2022/03/26 07:42:12;;;;;;;94.50;41.05;;;26.20;99.90;;;;;;5015479;28;20026;-79
2022/03/26 07:44:37;;;;;;;95.00;38.00;;;26.90;99.90;;;;;;5021568;28;20469;-82
2022/03/26 07:47:03;;;;;;;93.78;38.78;;;26.80;99.90;;;;;;5016151;28;20023;-80
2022/03/26 07:49:29;;;;;;;93.47;41.60;;;25.50;99.90;;;;;;5016412;28;20029;-80
2022/03/26 07:51:54;;;;;;;76.93;31.08;;;25.60;99.90;;;;;;5023507;28;20120;-79
2022/03/26 07:54:20;;;;;;;92.53;40.72;;;25.60;99.90;;;;;;5030027;28;20034;-79
2022/03/26 07:56:46;;;;;;;91.53;40.90;;;25.60;99.90;;;;;;5028982;28;20029;-80
2022/03/26 07:59:12;;;;;;;93.85;44.70;;;26.20;99.90;;;;;;5029521;28;20034;-79
2022/03/26 08:01:37;;;;;;;91.32;41.85;;;26.70;99.90;;;;;;5031995;28;20025;-80
2022/03/26 08:04:03;;;;;;;90.32;43.15;;;27.80;99.90;;;;;;5014483;28;20033;-79
2022/03/26 08:06:29;;;;;;;87.65;38.60;;;28.40;99.90;;;;;;5017875;28;20432;-80
2022/03/26 08:08:54;;;;;;;85.03;41.95;;;29.20;99.90;;;;;;5032030;28;20075;-80
2022/03/26 08:11:19;;;;;;;75.80;36.95;;;29.90;99.90;;;;;;5035858;28;20032;-79
2022/03/26 08:13:45;;;;;;;84.55;41.78;;;30.60;99.90;;;;;;5037659;28;20032;-80
2022/03/26 08:16:11;;;;;;;93.07;44.00;;;30.60;99.90;;;;;;5024642;28;20037;-81
2022/03/26 08:18:37;;;;;;;85.05;39.58;;;31.80;99.90;;;;;;5024334;28;20068;-81
2022/03/26 08:21:03;;;;;;;83.28;40.13;;;32.00;99.90;;;;;;5039486;28;20409;-82
2022/03/26 08:23:30;;;;;;;83.07;41.55;;;32.50;99.90;;;;;;5036994;28;20093;-82
2022/03/26 08:28:39;;;;;;;69.68;33.78;;;32.20;99.90;;;;;;5034549;28;20522;-82
2022/03/26 08:31:06;;;;;;;68.35;32.30;;;33.30;99.90;;;;;;5030088;28;20124;-81
2022/03/26 08:33:32;;;;;;;71.30;35.83;;;32.80;99.90;;;;;;5029204;28;20060;-81
2022/03/26 08:35:57;;;;;;;81.68;38.83;;;31.80;99.90;;;;;;5028740;28;20034;-83
2022/03/26 08:38:23;;;;;;;75.75;37.92;;;32.10;99.90;;;;;;5026728;28;20045;-84
2022/03/26 08:40:48;;;;;;;76.43;37.38;;;31.30;99.90;;;;;;5035871;28;20028;-83
2022/03/26 08:43:15;;;;;;;74.45;37.75;;;32.30;99.90;;;;;;5024419;28;20081;-84
2022/03/26 08:45:41;;;;;;;75.78;36.58;;;33.70;99.90;;;;;;5020257;28;20041;-83
2022/03/26 08:48:08;;;;;;;67.45;33.45;;;34.10;99.90;;;;;;5025735;28;20022;-83
2022/03/26 08:50:34;;;;;;;76.60;36.10;;;34.50;99.90;;;;;;5023575;28;20029;-85
2022/03/26 08:53:00;;;;;;;76.70;36.10;;;33.70;99.90;;;;;;5027768;28;20029;-83
2022/03/26 08:55:27;;;;;;;67.38;36.20;;;33.90;99.90;;;;;;5016369;28;20157;-84
2022/03/26 08:57:53;;;;;;;72.30;32.58;;;33.80;99.90;;;;;;5029449;28;20152;-84
2022/03/26 09:00:20;;;;;;;62.53;29.52;;;33.30;99.90;;;;;;5031301;28;20025;-86
2022/03/26 09:02:45;;;;;;;66.88;32.50;;;32.80;99.90;;;;;;5018712;28;20064;-86
2022/03/26 09:05:13;;;;;;;72.00;35.30;;;33.00;99.90;;;;;;5024341;28;20057;-87
2022/03/26 09:07:39;;;;;;;64.57;30.58;;;34.40;99.90;;;;;;5019641;28;20033;-85
2022/03/26 09:10:05;;;;;;;68.90;32.50;;;33.10;99.90;;;;;;5013750;28;20082;-85
2022/03/26 09:12:31;;;;;;;60.22;28.77;;;31.70;99.90;;;;;;5028465;28;20028;-85
2022/03/26 09:14:56;;;;;;;54.33;27.10;;;32.10;99.90;;;;;;5018589;28;20052;-85
2022/03/26 09:17:22;;;;;;;54.42;24.35;;;31.10;99.90;;;;;;5028675;28;20671;-85
2022/03/26 09:19:47;;;;;;;50.85;26.88;;;31.00;99.90;;;;;;5020458;28;20022;-85
2022/03/26 09:22:13;;;;;;;45.38;23.00;;;31.80;99.90;;;;;;5021899;28;20022;-86
2022/03/26 09:24:39;;;;;;;49.35;25.58;;;31.10;99.90;;;;;;5031556;28;20161;-85
2022/03/26 09:27:04;;;;;;;50.63;25.75;;;30.50;99.90;;;;;;5017796;28;20036;-85
2022/03/26 09:29:30;;;;;;;52.97;23.08;;;30.70;99.90;;;;;;5011979;28;20029;-85
2022/03/26 09:31:56;;;;;;;37.70;20.60;;;30.90;99.90;;;;;;5013665;28;20405;-85
2022/03/26 09:34:21;;;;;;;42.83;20.38;;;29.60;99.90;;;;;;5012852;28;20022;-86
2022/03/26 09:36:47;;;;;;;43.53;20.80;;;29.60;99.90;;;;;;5020381;28;20050;-85
2022/03/26 09:39:13;;;;;;;43.50;20.02;;;28.50;99.90;;;;;;5013483;28;20037;-85
2022/03/26 09:41:39;;;;;;;47.88;22.30;;;27.80;99.90;;;;;;5013815;28;20097;-86
2022/03/26 09:44:06;;;;;;;39.05;16.98;;;29.30;99.90;;;;;;5014333;28;20042;-86
2022/03/26 09:46:35;;;;;;;35.00;17.88;;;28.00;99.90;;;;;;5014609;28;20061;-85
2022/03/26 09:49:02;;;;;;;40.42;22.13;;;28.60;99.90;;;;;;5011193;28;20034;-85
2022/03/26 09:51:28;;;;;;;41.50;22.85;;;27.30;99.90;;;;;;5004325;28;20037;-86
2022/03/26 09:53:54;;;;;;;45.53;22.17;;;29.30;99.90;;;;;;5027643;28;20021;-85
2022/03/26 09:56:20;;;;;;;47.03;25.30;;;28.30;99.90;;;;;;5019925;28;20110;-85
2022/03/26 09:58:46;;;;;;;50.28;26.98;;;28.70;99.90;;;;;;5014003;28;20026;-84
2022/03/26 10:01:12;;;;;;;39.20;20.73;;;29.60;99.90;;;;;;5015563;28;20510;-85
2022/03/26 10:03:40;;;;;;;40.70;24.23;;;28.70;99.90;;;;;;5012514;28;20037;-85
2022/03/26 10:06:07;;;;;;;32.42;16.95;;;28.30;99.90;;;;;;5021365;28;20041;-85
2022/03/26 10:08:39;;;;;;;34.63;19.63;;;27.70;99.90;;;;;;5014037;28;20022;-85
2022/03/26 10:11:06;;;;;;;33.05;18.95;;;28.00;99.90;;;;;;5013242;28;20041;-85
2022/03/26 10:13:39;;;;;;;32.35;18.10;;;26.00;99.90;;;;;;5016946;28;20032;-85
2022/03/26 10:16:07;;;;;;;28.98;17.60;;;27.30;99.90;;;;;;5015942;28;20036;-84
2022/03/26 10:18:38;;;;;;;31.73;18.20;;;27.80;99.90;;;;;;5014919;28;20021;-84
2022/03/26 10:21:07;;;;;;;28.77;16.90;;;28.30;99.90;;;;;;5011111;28;20038;-85
2022/03/26 10:23:33;;;;;;;34.60;18.87;;;27.90;99.90;;;;;;5012899;28;20396;-85
2022/03/26 10:26:13;;;;;;;28.92;16.52;;;28.50;99.90;;;;;;5022435;28;20068;-84
2022/03/26 10:28:40;;;;;;;30.83;16.75;;;29.20;99.90;;;;;;5022143;28;20021;-84
2022/03/26 10:34:09;;;;;;;25.95;15.20;;;27.30;99.90;;;;;;5004757;28;20040;-84
2022/03/26 10:36:37;;;;;;;23.67;12.77;;;27.40;99.90;;;;;;5012204;28;20021;-84
2022/03/26 10:39:03;;;;;;;19.38;12.02;;;27.20;99.90;;;;;;5011148;28;20025;-84
2022/03/26 10:41:32;;;;;;;19.13;11.85;;;27.90;99.90;;;;;;5011100;28;20021;-85
2022/03/26 10:44:10;;;;;;;19.50;10.98;;;27.40;99.90;;;;;;5011588;28;20530;-85
2022/03/26 10:46:42;;;;;;;22.13;11.80;;;24.90;99.90;;;;;;5018603;28;20445;-85
2022/03/26 10:49:08;;;;;;;22.10;12.68;;;25.90;99.90;;;;;;5033004;28;20477;-86
2022/03/26 10:51:38;;;;;;;16.73;9.77;;;24.70;99.90;;;;;;5034562;28;20037;-84
2022/03/26 10:54:15;;;;;;;19.15;11.00;;;23.60;99.90;;;;;;5034675;28;20649;-85
2022/03/26 10:56:41;;;;;;;17.80;10.05;;;22.90;99.90;;;;;;5032861;28;20033;-84
2022/03/26 10:59:07;;;;;;;22.15;9.63;;;22.10;99.90;;;;;;5022351;28;20030;-84
2022/03/26 11:01:34;;;;;;;16.85;10.23;;;21.00;99.90;;;;;;5017072;28;20505;-84
2022/03/26 11:04:00;;;;;;;16.88;9.40;;;20.10;99.90;;;;;;5009710;28;20417;-84
2022/03/26 11:06:27;;;;;;;19.73;11.30;;;18.90;99.90;;;;;;5009918;28;20378;-84
2022/03/26 11:09:02;;;;;;;18.10;10.43;;;18.40;99.90;;;;;;5019127;28;20504;-84
2022/03/26 11:11:28;;;;;;;17.92;10.18;;;18.30;99.90;;;;;;5016571;28;20021;-84
2022/03/26 11:14:16;;;;;;;14.18;7.90;;;17.90;99.90;;;;;;5022511;28;20030;-85
2022/03/26 11:16:47;;;;;;;15.05;7.95;;;17.40;99.90;;;;;;5014264;28;20602;-85
2022/03/26 11:19:24;;;;;;;15.40;8.07;;;17.20;99.90;;;;;;5016486;28;20026;-84
2022/03/26 11:22:01;;;;;;;16.38;9.50;;;17.50;99.90;;;;;;5025492;28;20029;-84
2022/03/26 11:24:40;;;;;;;13.32;7.47;;;17.50;99.90;;;;;;5015423;28;20022;-84
2022/03/26 11:27:43;;;;;;;10.30;6.65;;;17.40;99.90;;;;;;5013928;28;20033;-84
2022/03/26 11:30:20;;;;;;;10.43;7.15;;;16.90;99.90;;;;;;5013899;28;20033;-85
2022/03/26 11:32:51;;;;;;;11.07;5.28;;;16.80;99.90;;;;;;5013175;28;20069;-85
2022/03/26 11:35:17;;;;;;;;;;;16.90;99.90;;;;;;5016455;28;20342;-84
2022/03/26 11:37:54;;;;;;;12.02;6.25;;;16.80;99.90;;;;;;5016106;28;20012;-84
2022/03/26 11:40:45;;;;;;;11.52;7.05;;;16.90;99.90;;;;;;5030580;28;20147;-83
2022/03/26 11:43:11;;;;;;;7.65;5.40;;;16.70;99.90;;;;;;5022473;28;20026;-84
2022/03/26 11:51:19;;;;;;;8.48;4.40;;;16.60;99.90;;;;;;5031379;28;20099;-83
2022/03/26 11:53:47;;;;;;;8.73;5.13;;;16.50;99.90;;;;;;5028620;28;20080;-85
2022/03/26 11:56:32;;;;;;;8.45;5.82;;;16.50;99.90;;;;;;5022919;28;20030;-84
2022/03/26 11:59:16;;;;;;;9.55;6.03;;;16.60;99.90;;;;;;5028133;28;20045;-86
2022/03/26 12:01:44;;;;;;;9.23;5.72;;;16.60;99.90;;;;;;5007106;28;20025;-86
2022/03/26 12:04:17;;;;;;;8.48;4.53;;;16.80;99.90;;;;;;5030099;28;20037;-83
2022/03/26 12:06:51;;;;;;;5.65;3.38;;;16.80;99.90;;;;;;5009163;28;20100;-85
2022/03/26 12:09:35;;;;;;;6.60;4.55;;;16.50;99.90;;;;;;5015080;28;20031;-84
2022/03/26 12:12:12;;;;;;;11.55;5.05;;;16.60;99.90;;;;;;5016475;28;20034;-82
2022/03/26 12:15:02;;;;;;;5.65;3.50;;;16.60;99.90;;;;;;5016157;28;20034;-81
2022/03/26 12:17:46;;;;;;;;;;;16.60;99.90;;;;;;5017013;28;20490;-82
2022/03/26 12:20:21;;;;;;;7.10;4.10;;;16.40;99.90;;;;;;5013948;28;19917;-82
2022/03/26 12:23:10;;;;;;;6.00;3.05;;;16.60;99.90;;;;;;5010166;28;20033;-83
2022/03/26 12:25:39;;;;;;;3.83;2.25;;;16.60;99.90;;;;;;5021078;28;20522;-84
2022/03/26 12:28:05;;;;;;;3.65;2.95;;;16.40;99.90;;;;;;5020732;28;20033;-82
2022/03/26 12:30:31;;;;;;;8.30;3.90;;;16.30;99.90;;;;;;5022721;28;20025;-83
2022/03/26 12:32:59;;;;;;;5.80;2.95;;;16.20;99.90;;;;;;5032628;28;20539;-82
2022/03/26 12:35:26;;;;;;;7.90;4.18;;;16.30;99.90;;;;;;5032310;28;20105;-83
2022/03/26 12:37:52;;;;;;;4.35;3.20;;;16.50;99.90;;;;;;5014127;28;20034;-82
2022/03/26 12:40:17;;;;;;;7.72;4.03;;;16.80;99.90;;;;;;5028132;28;20357;-82
2022/03/26 12:42:43;;;;;;;7.60;4.28;;;16.80;99.90;;;;;;5015906;28;20397;-82